sensor_id;sensor_type;location;lat;lon;timestamp;P1;P2;P0
77777;PMS5003;66966;-34.746;138.604;2023-07-20T00:02:00;2;1;
77777;PMS5003;66966;-34.746;138.604;2023-07-20T00:16:34;2;1;
77777;PMS5003;66966;-34.746;138.604;2023-07-20T00:18:57;3;2;
77777;PMS5003;66966;-34.746;138.604;2023-07-20T00:21:22;1;1;
77777;PMS5003;66966;-34.746;138.604;2023-07-20T00:23:48;2;0;
77777;PMS5003;66966;-34.746;138.604;2023-07-20T00:26:14;1;1;
77777;PMS5003;66966;-34.746;138.604;2023-07-20T00:28:40;2;2;
77777;PMS5003;66966;-34.746;138.604;2023-07-20T00:31:05;1;1;
77777;PMS5003;66966;-34.746;138.604;2023-07-20T00:33:31;2;1;
77777;PMS5003;66966;-34.746;138.604;2023-07-20T00:35:56;2;2;
77777;PMS5003;66966;-34.746;138.604;2023-07-20T00:38:22;2;1;
77777;PMS5003;66966;-34.746;138.604;2023-07-20T00:40:48;0;0;
77777;PMS5003;66966;-34.746;138.604;2023-07-20T00:43:13;3;2;
77777;PMS5003;66966;-34.746;138.604;2023-07-20T00:45:39;1;1;
77777;PMS5003;66966;-34.746;138.604;2023-07-20T00:48:05;3;2;
77777;PMS5003;66966;-34.746;138.604;2023-07-20T00:50:31;2;0;
77777;PMS5003;66966;-34.746;138.604;2023-07-20T00:52:56;4;2;
77777;PMS5003;66966;-34.746;138.604;2023-07-20T00:55:22;2;2;
77777;PMS5003;66966;-34.746;138.604;2023-07-20T00:57:47;1;1;
77777;PMS5003;66966;-34.746;138.604;2023-07-20T01:00:14;2;2;
77777;PMS5003;66966;-34.746;138.604;2023-07-20T01:02:39;1;1;
77777;PMS5003;66966;-34.746;138.604;2023-07-20T01:05:05;1;0;
77777;PMS5003;66966;-34.746;138.604;2023-07-20T01:07:31;2;1;
77777;PMS5003;66966;-34.746;138.604;2023-07-20T01:09:58;1;1;
77777;PMS5003;66966;-34.746;138.604;2023-07-20T01:12:23;1;1;
77777;PMS5003;66966;-34.746;138.604;2023-07-20T01:14:47;1;1;
77777;PMS5003;66966;-34.746;138.604;2023-07-20T01:17:13;1;1;
77777;PMS5003;66966;-34.746;138.604;2023-07-20T01:19:38;0;0;
77777;PMS5003;66966;-34.746;138.604;2023-07-20T01:22:07;0;0;
77777;PMS5003;66966;-34.746;138.604;2023-07-20T01:24:42;1;1;
77777;PMS5003;66966;-34.746;138.604;2023-07-20T01:27:04;3;0;
77777;PMS5003;66966;-34.746;138.604;2023-07-20T01:29:23;1;0;
77777;PMS5003;66966;-34.746;138.604;2023-07-20T01:31:46;1;0;
77777;PMS5003;66966;-34.746;138.604;2023-07-20T01:34:12;2;1;
77777;PMS5003;66966;-34.746;138.604;2023-07-20T01:36:37;1;1;
77777;PMS5003;66966;-34.746;138.604;2023-07-20T01:39:03;3;2;
77777;PMS5003;66966;-34.746;138.604;2023-07-20T01:41:28;7;5;
77777;PMS5003;66966;-34.746;138.604;2023-07-20T01:43:53;3;3;
77777;PMS5003;66966;-34.746;138.604;2023-07-20T01:46:19;4;3;
77777;PMS5003;66966;-34.746;138.604;2023-07-20T01:48:45;1;1;
77777;PMS5003;66966;-34.746;138.604;2023-07-20T01:51:10;3;1;
77777;PMS5003;66966;-34.746;138.604;2023-07-20T01:53:36;0;0;
77777;PMS5003;66966;-34.746;138.604;2023-07-20T01:56:02;3;2;
77777;PMS5003;66966;-34.746;138.604;2023-07-20T01:58:27;3;3;
77777;PMS5003;66966;-34.746;138.604;2023-07-20T02:00:53;1;1;
77777;PMS5003;66966;-34.746;138.604;2023-07-20T02:03:18;0;0;
77777;PMS5003;66966;-34.746;138.604;2023-07-20T02:05:44;3;3;
77777;PMS5003;66966;-34.746;138.604;2023-07-20T02:08:09;6;5;
77777;PMS5003;66966;-34.746;138.604;2023-07-20T02:10:35;2;1;
77777;PMS5003;66966;-34.746;138.604;2023-07-20T02:13:02;2;2;
77777;PMS5003;66966;-34.746;138.604;2023-07-20T02:15:27;1;1;
77777;PMS5003;66966;-34.746;138.604;2023-07-20T02:17:52;2;1;
77777;PMS5003;66966;-34.746;138.604;2023-07-20T02:20:18;2;2;
77777;PMS5003;66966;-34.746;138.604;2023-07-20T02:22:43;3;1;
77777;PMS5003;66966;-34.746;138.604;2023-07-20T02:25:09;0;0;
77777;PMS5003;66966;-34.746;138.604;2023-07-20T02:27:34;2;1;
77777;PMS5003;66966;-34.746;138.604;2023-07-20T02:30:00;2;1;
77777;PMS5003;66966;-34.746;138.604;2023-07-20T02:32:26;2;1;
77777;PMS5003;66966;-34.746;138.604;2023-07-20T02:34:51;3;1;
77777;PMS5003;66966;-34.746;138.604;2023-07-20T02:37:17;2;1;
77777;PMS5003;66966;-34.746;138.604;2023-07-20T02:39:42;2;0;
77777;PMS5003;66966;-34.746;138.604;2023-07-20T02:42:08;3;2;
77777;PMS5003;66966;-34.746;138.604;2023-07-20T02:44:33;0;0;
77777;PMS5003;66966;-34.746;138.604;2023-07-20T02:46:59;1;1;
77777;PMS5003;66966;-34.746;138.604;2023-07-20T02:49:25;1;1;
77777;PMS5003;66966;-34.746;138.604;2023-07-20T02:51:50;3;0;
77777;PMS5003;66966;-34.746;138.604;2023-07-20T02:54:16;1;0;
77777;PMS5003;66966;-34.746;138.604;2023-07-20T02:56:41;2;1;
77777;PMS5003;66966;-34.746;138.604;2023-07-20T02:59:07;0;0;
77777;PMS5003;66966;-34.746;138.604;2023-07-20T03:01:33;1;0;
77777;PMS5003;66966;-34.746;138.604;2023-07-20T03:03:58;1;1;
77777;PMS5003;66966;-34.746;138.604;2023-07-20T03:06:24;3;1;
77777;PMS5003;66966;-34.746;138.604;2023-07-20T03:08:49;2;0;
77777;PMS5003;66966;-34.746;138.604;2023-07-20T03:11:15;2;1;
77777;PMS5003;66966;-34.746;138.604;2023-07-20T03:13:41;6;5;
77777;PMS5003;66966;-34.746;138.604;2023-07-20T03:16:06;5;3;
77777;PMS5003;66966;-34.746;138.604;2023-07-20T03:18:32;4;4;
77777;PMS5003;66966;-34.746;138.604;2023-07-20T03:20:57;2;1;
77777;PMS5003;66966;-34.746;138.604;2023-07-20T03:23:23;3;2;
77777;PMS5003;66966;-34.746;138.604;2023-07-20T03:25:49;1;1;
77777;PMS5003;66966;-34.746;138.604;2023-07-20T03:28:14;2;2;
77777;PMS5003;66966;-34.746;138.604;2023-07-20T03:30:40;4;2;
77777;PMS5003;66966;-34.746;138.604;2023-07-20T03:33:06;2;0;
77777;PMS5003;66966;-34.746;138.604;2023-07-20T03:35:31;1;0;
77777;PMS5003;66966;-34.746;138.604;2023-07-20T03:37:57;3;0;
77777;PMS5003;66966;-34.746;138.604;2023-07-20T03:40:22;0;0;
77777;PMS5003;66966;-34.746;138.604;2023-07-20T03:42:48;0;0;
77777;PMS5003;66966;-34.746;138.604;2023-07-20T03:45:14;1;0;
77777;PMS5003;66966;-34.746;138.604;2023-07-20T03:47:39;1;0;
77777;PMS5003;66966;-34.746;138.604;2023-07-20T03:50:05;1;0;
77777;PMS5003;66966;-34.746;138.604;2023-07-20T03:52:30;2;2;
77777;PMS5003;66966;-34.746;138.604;2023-07-20T03:54:56;4;1;
77777;PMS5003;66966;-34.746;138.604;2023-07-20T03:57:22;1;1;
77777;PMS5003;66966;-34.746;138.604;2023-07-20T03:59:47;2;1;
77777;PMS5003;66966;-34.746;138.604;2023-07-20T04:02:13;1;0;
77777;PMS5003;66966;-34.746;138.604;2023-07-20T04:04:38;1;1;
77777;PMS5003;66966;-34.746;138.604;2023-07-20T04:07:05;4;2;
77777;PMS5003;66966;-34.746;138.604;2023-07-20T04:09:31;1;1;
77777;PMS5003;66966;-34.746;138.604;2023-07-20T04:11:55;3;1;
77777;PMS5003;66966;-34.746;138.604;2023-07-20T04:14:21;1;1;
77777;PMS5003;66966;-34.746;138.604;2023-07-20T04:16:47;0;0;
77777;PMS5003;66966;-34.746;138.604;2023-07-20T04:19:13;1;1;
77777;PMS5003;66966;-34.746;138.604;2023-07-20T04:21:40;0;0;
77777;PMS5003;66966;-34.746;138.604;2023-07-20T04:24:03;1;0;
77777;PMS5003;66966;-34.746;138.604;2023-07-20T04:26:29;1;0;
77777;PMS5003;66966;-34.746;138.604;2023-07-20T04:28:54;0;0;
77777;PMS5003;66966;-34.746;138.604;2023-07-20T04:31:21;0;0;
77777;PMS5003;66966;-34.746;138.604;2023-07-20T04:33:45;1;0;
77777;PMS5003;66966;-34.746;138.604;2023-07-20T04:36:11;0;0;
77777;PMS5003;66966;-34.746;138.604;2023-07-20T04:38:37;1;1;
77777;PMS5003;66966;-34.746;138.604;2023-07-20T04:41:02;0;0;
77777;PMS5003;66966;-34.746;138.604;2023-07-20T04:43:28;0;0;
77777;PMS5003;66966;-34.746;138.604;2023-07-20T04:45:53;1;1;
77777;PMS5003;66966;-34.746;138.604;2023-07-20T04:48:19;1;1;
77777;PMS5003;66966;-34.746;138.604;2023-07-20T04:50:45;1;1;
77777;PMS5003;66966;-34.746;138.604;2023-07-20T04:53:10;0;0;
77777;PMS5003;66966;-34.746;138.604;2023-07-20T04:55:36;1;0;
77777;PMS5003;66966;-34.746;138.604;2023-07-20T04:58:01;1;1;
77777;PMS5003;66966;-34.746;138.604;2023-07-20T05:00:27;3;1;
77777;PMS5003;66966;-34.746;138.604;2023-07-20T05:02:53;1;1;
77777;PMS5003;66966;-34.746;138.604;2023-07-20T05:05:18;0;0;
77777;PMS5003;66966;-34.746;138.604;2023-07-20T05:07:44;5;2;
77777;PMS5003;66966;-34.746;138.604;2023-07-20T05:10:09;1;1;
77777;PMS5003;66966;-34.746;138.604;2023-07-20T05:12:35;3;1;
77777;PMS5003;66966;-34.746;138.604;2023-07-20T05:15:00;1;0;
77777;PMS5003;66966;-34.746;138.604;2023-07-20T05:17:26;3;2;
77777;PMS5003;66966;-34.746;138.604;2023-07-20T05:19:51;2;1;
77777;PMS5003;66966;-34.746;138.604;2023-07-20T05:22:17;2;1;
77777;PMS5003;66966;-34.746;138.604;2023-07-20T05:24:43;4;2;
77777;PMS5003;66966;-34.746;138.604;2023-07-20T05:27:09;4;2;
77777;PMS5003;66966;-34.746;138.604;2023-07-20T05:29:34;0;0;
77777;PMS5003;66966;-34.746;138.604;2023-07-20T05:31:59;1;0;
77777;PMS5003;66966;-34.746;138.604;2023-07-20T05:34:25;2;1;
77777;PMS5003;66966;-34.746;138.604;2023-07-20T05:36:51;1;1;
77777;PMS5003;66966;-34.746;138.604;2023-07-20T05:39:17;5;4;
77777;PMS5003;66966;-34.746;138.604;2023-07-20T05:41:41;4;1;
77777;PMS5003;66966;-34.746;138.604;2023-07-20T05:44:07;2;1;
77777;PMS5003;66966;-34.746;138.604;2023-07-20T05:46:33;2;1;
77777;PMS5003;66966;-34.746;138.604;2023-07-20T05:48:58;2;2;
77777;PMS5003;66966;-34.746;138.604;2023-07-20T05:51:24;2;1;
77777;PMS5003;66966;-34.746;138.604;2023-07-20T05:53:49;2;2;
77777;PMS5003;66966;-34.746;138.604;2023-07-20T05:56:14;3;2;
77777;PMS5003;66966;-34.746;138.604;2023-07-20T05:58:40;2;1;
77777;PMS5003;66966;-34.746;138.604;2023-07-20T06:01:06;2;1;
77777;PMS5003;66966;-34.746;138.604;2023-07-20T06:03:32;4;4;
77777;PMS5003;66966;-34.746;138.604;2023-07-20T06:05:58;2;0;
77777;PMS5003;66966;-34.746;138.604;2023-07-20T06:08:22;3;2;
77777;PMS5003;66966;-34.746;138.604;2023-07-20T06:10:50;4;3;
77777;PMS5003;66966;-34.746;138.604;2023-07-20T06:13:13;4;3;
77777;PMS5003;66966;-34.746;138.604;2023-07-20T06:15:39;1;1;
77777;PMS5003;66966;-34.746;138.604;2023-07-20T06:18:04;2;1;
77777;PMS5003;66966;-34.746;138.604;2023-07-20T06:20:30;1;1;
77777;PMS5003;66966;-34.746;138.604;2023-07-20T06:22:56;2;1;
77777;PMS5003;66966;-34.746;138.604;2023-07-20T06:25:21;4;4;
77777;PMS5003;66966;-34.746;138.604;2023-07-20T06:27:48;4;2;
77777;PMS5003;66966;-34.746;138.604;2023-07-20T06:30:12;5;4;
77777;PMS5003;66966;-34.746;138.604;2023-07-20T06:32:37;4;1;
77777;PMS5003;66966;-34.746;138.604;2023-07-20T06:35:03;4;2;
77777;PMS5003;66966;-34.746;138.604;2023-07-20T06:37:28;4;3;
77777;PMS5003;66966;-34.746;138.604;2023-07-20T06:39:54;4;3;
77777;PMS5003;66966;-34.746;138.604;2023-07-20T06:42:19;2;1;
77777;PMS5003;66966;-34.746;138.604;2023-07-20T06:44:45;3;3;
77777;PMS5003;66966;-34.746;138.604;2023-07-20T06:47:11;2;2;
77777;PMS5003;66966;-34.746;138.604;2023-07-20T06:49:36;3;3;
77777;PMS5003;66966;-34.746;138.604;2023-07-20T06:52:02;2;1;
77777;PMS5003;66966;-34.746;138.604;2023-07-20T06:54:27;7;4;
77777;PMS5003;66966;-34.746;138.604;2023-07-20T06:56:53;2;2;
77777;PMS5003;66966;-34.746;138.604;2023-07-20T06:59:18;3;2;
77777;PMS5003;66966;-34.746;138.604;2023-07-20T07:01:44;3;1;
77777;PMS5003;66966;-34.746;138.604;2023-07-20T07:04:10;2;2;
77777;PMS5003;66966;-34.746;138.604;2023-07-20T07:06:36;3;2;
77777;PMS5003;66966;-34.746;138.604;2023-07-20T07:09:01;4;4;
77777;PMS5003;66966;-34.746;138.604;2023-07-20T07:11:26;3;2;
77777;PMS5003;66966;-34.746;138.604;2023-07-20T07:13:52;3;2;
77777;PMS5003;66966;-34.746;138.604;2023-07-20T07:16:18;2;1;
77777;PMS5003;66966;-34.746;138.604;2023-07-20T07:18:43;1;1;
77777;PMS5003;66966;-34.746;138.604;2023-07-20T07:21:09;2;1;
77777;PMS5003;66966;-34.746;138.604;2023-07-20T07:23:34;3;2;
77777;PMS5003;66966;-34.746;138.604;2023-07-20T07:26:00;1;0;
77777;PMS5003;66966;-34.746;138.604;2023-07-20T07:28:25;1;0;
77777;PMS5003;66966;-34.746;138.604;2023-07-20T07:30:51;4;3;
77777;PMS5003;66966;-34.746;138.604;2023-07-20T07:33:16;3;2;
77777;PMS5003;66966;-34.746;138.604;2023-07-20T07:35:42;4;3;
77777;PMS5003;66966;-34.746;138.604;2023-07-20T07:38:07;6;4;
77777;PMS5003;66966;-34.746;138.604;2023-07-20T07:40:33;5;4;
77777;PMS5003;66966;-34.746;138.604;2023-07-20T07:42:59;2;2;
77777;PMS5003;66966;-34.746;138.604;2023-07-20T07:45:25;3;3;
77777;PMS5003;66966;-34.746;138.604;2023-07-20T07:47:50;4;2;
77777;PMS5003;66966;-34.746;138.604;2023-07-20T07:50:15;3;1;
77777;PMS5003;66966;-34.746;138.604;2023-07-20T07:52:41;4;3;
77777;PMS5003;66966;-34.746;138.604;2023-07-20T07:55:07;6;3;
77777;PMS5003;66966;-34.746;138.604;2023-07-20T07:57:33;3;2;
77777;PMS5003;66966;-34.746;138.604;2023-07-20T07:59:58;3;1;
77777;PMS5003;66966;-34.746;138.604;2023-07-20T08:02:24;3;2;
77777;PMS5003;66966;-34.746;138.604;2023-07-20T08:04:49;4;2;
77777;PMS5003;66966;-34.746;138.604;2023-07-20T08:07:15;5;4;
77777;PMS5003;66966;-34.746;138.604;2023-07-20T08:09:41;5;2;
77777;PMS5003;66966;-34.746;138.604;2023-07-20T08:12:07;1;1;
77777;PMS5003;66966;-34.746;138.604;2023-07-20T08:14:32;4;2;
77777;PMS5003;66966;-34.746;138.604;2023-07-20T08:16:58;9;7;
77777;PMS5003;66966;-34.746;138.604;2023-07-20T08:19:23;11;8;
77777;PMS5003;66966;-34.746;138.604;2023-07-20T08:21:49;44;40;
77777;PMS5003;66966;-34.746;138.604;2023-07-20T08:24:14;45;42;
77777;PMS5003;66966;-34.746;138.604;2023-07-20T08:26:39;16;13;
77777;PMS5003;66966;-34.746;138.604;2023-07-20T08:29:05;12;10;
77777;PMS5003;66966;-34.746;138.604;2023-07-20T08:31:30;8;6;
77777;PMS5003;66966;-34.746;138.604;2023-07-20T08:33:56;5;4;
77777;PMS5003;66966;-34.746;138.604;2023-07-20T08:36:22;9;6;
77777;PMS5003;66966;-34.746;138.604;2023-07-20T08:38:47;4;4;
77777;PMS5003;66966;-34.746;138.604;2023-07-20T08:41:13;7;5;
77777;PMS5003;66966;-34.746;138.604;2023-07-20T08:43:38;8;5;
77777;PMS5003;66966;-34.746;138.604;2023-07-20T08:46:04;5;4;
77777;PMS5003;66966;-34.746;138.604;2023-07-20T08:48:29;5;5;
77777;PMS5003;66966;-34.746;138.604;2023-07-20T08:50:55;5;3;
77777;PMS5003;66966;-34.746;138.604;2023-07-20T08:53:21;5;2;
77777;PMS5003;66966;-34.746;138.604;2023-07-20T08:55:46;4;3;
77777;PMS5003;66966;-34.746;138.604;2023-07-20T08:58:12;5;3;
77777;PMS5003;66966;-34.746;138.604;2023-07-20T09:00:39;2;2;
77777;PMS5003;66966;-34.746;138.604;2023-07-20T09:03:03;4;3;
77777;PMS5003;66966;-34.746;138.604;2023-07-20T09:05:29;7;3;
77777;PMS5003;66966;-34.746;138.604;2023-07-20T09:07:54;4;3;
77777;PMS5003;66966;-34.746;138.604;2023-07-20T09:10:20;3;2;
77777;PMS5003;66966;-34.746;138.604;2023-07-20T09:12:45;2;1;
77777;PMS5003;66966;-34.746;138.604;2023-07-20T09:15:11;3;1;
77777;PMS5003;66966;-34.746;138.604;2023-07-20T09:17:37;2;2;
77777;PMS5003;66966;-34.746;138.604;2023-07-20T09:20:03;2;2;
77777;PMS5003;66966;-34.746;138.604;2023-07-20T09:22:30;1;1;
77777;PMS5003;66966;-34.746;138.604;2023-07-20T09:24:54;1;1;
77777;PMS5003;66966;-34.746;138.604;2023-07-20T09:27:19;5;3;
77777;PMS5003;66966;-34.746;138.604;2023-07-20T09:29:48;3;3;
77777;PMS5003;66966;-34.746;138.604;2023-07-20T09:32:11;4;3;
77777;PMS5003;66966;-34.746;138.604;2023-07-20T09:34:36;9;5;
77777;PMS5003;66966;-34.746;138.604;2023-07-20T09:37:02;3;1;
77777;PMS5003;66966;-34.746;138.604;2023-07-20T09:39:28;5;4;
77777;PMS5003;66966;-34.746;138.604;2023-07-20T09:41:53;5;4;
77777;PMS5003;66966;-34.746;138.604;2023-07-20T09:44:19;5;3;
77777;PMS5003;66966;-34.746;138.604;2023-07-20T09:46:45;6;6;
77777;PMS5003;66966;-34.746;138.604;2023-07-20T09:49:10;5;5;
77777;PMS5003;66966;-34.746;138.604;2023-07-20T09:51:35;7;6;
77777;PMS5003;66966;-34.746;138.604;2023-07-20T09:54:01;4;2;
77777;PMS5003;66966;-34.746;138.604;2023-07-20T09:56:27;4;2;
77777;PMS5003;66966;-34.746;138.604;2023-07-20T09:58:52;1;1;
77777;PMS5003;66966;-34.746;138.604;2023-07-20T10:01:20;1;1;
77777;PMS5003;66966;-34.746;138.604;2023-07-20T10:03:43;1;1;
77777;PMS5003;66966;-34.746;138.604;2023-07-20T10:06:10;3;2;
77777;PMS5003;66966;-34.746;138.604;2023-07-20T10:08:37;0;0;
77777;PMS5003;66966;-34.746;138.604;2023-07-20T10:11:01;0;0;
77777;PMS5003;66966;-34.746;138.604;2023-07-20T10:13:27;0;0;
77777;PMS5003;66966;-34.746;138.604;2023-07-20T10:15:53;1;1;
77777;PMS5003;66966;-34.746;138.604;2023-07-20T10:18:22;1;1;
77777;PMS5003;66966;-34.746;138.604;2023-07-20T10:20:43;5;5;
77777;PMS5003;66966;-34.746;138.604;2023-07-20T10:23:08;0;0;
77777;PMS5003;66966;-34.746;138.604;2023-07-20T10:25:34;0;0;
77777;PMS5003;66966;-34.746;138.604;2023-07-20T10:27:59;1;1;
77777;PMS5003;66966;-34.746;138.604;2023-07-20T10:30:25;0;0;
77777;PMS5003;66966;-34.746;138.604;2023-07-20T10:32:51;1;0;
77777;PMS5003;66966;-34.746;138.604;2023-07-20T10:35:17;1;1;
77777;PMS5003;66966;-34.746;138.604;2023-07-20T10:37:51;2;2;
77777;PMS5003;66966;-34.746;138.604;2023-07-20T10:42:34;1;1;
77777;PMS5003;66966;-34.746;138.604;2023-07-20T10:44:59;2;1;
77777;PMS5003;66966;-34.746;138.604;2023-07-20T10:47:25;1;1;
77777;PMS5003;66966;-34.746;138.604;2023-07-20T10:49:58;2;2;
77777;PMS5003;66966;-34.746;138.604;2023-07-20T10:52:16;1;1;
77777;PMS5003;66966;-34.746;138.604;2023-07-20T10:54:47;2;1;
77777;PMS5003;66966;-34.746;138.604;2023-07-20T10:59:37;4;2;
77777;PMS5003;66966;-34.746;138.604;2023-07-20T11:01:59;3;1;
77777;PMS5003;66966;-34.746;138.604;2023-07-20T11:06:55;2;1;
77777;PMS5003;66966;-34.746;138.604;2023-07-20T11:09:16;2;2;
77777;PMS5003;66966;-34.746;138.604;2023-07-20T11:11:42;2;2;
77777;PMS5003;66966;-34.746;138.604;2023-07-20T11:14:08;2;1;
77777;PMS5003;66966;-34.746;138.604;2023-07-20T11:16:35;2;2;
77777;PMS5003;66966;-34.746;138.604;2023-07-20T11:19:04;2;1;
77777;PMS5003;66966;-34.746;138.604;2023-07-20T11:21:24;1;1;
77777;PMS5003;66966;-34.746;138.604;2023-07-20T11:23:50;1;1;
77777;PMS5003;66966;-34.746;138.604;2023-07-20T11:26:16;1;1;
77777;PMS5003;66966;-34.746;138.604;2023-07-20T11:28:41;1;1;
77777;PMS5003;66966;-34.746;138.604;2023-07-20T11:31:07;4;3;
77777;PMS5003;66966;-34.746;138.604;2023-07-20T11:33:33;1;1;
77777;PMS5003;66966;-34.746;138.604;2023-07-20T11:35:58;3;1;
77777;PMS5003;66966;-34.746;138.604;2023-07-20T11:38:24;1;1;
77777;PMS5003;66966;-34.746;138.604;2023-07-20T11:40:50;1;1;
77777;PMS5003;66966;-34.746;138.604;2023-07-20T11:43:15;2;2;
77777;PMS5003;66966;-34.746;138.604;2023-07-20T11:45:41;1;1;
77777;PMS5003;66966;-34.746;138.604;2023-07-20T11:48:07;3;1;
77777;PMS5003;66966;-34.746;138.604;2023-07-20T11:50:32;1;1;
77777;PMS5003;66966;-34.746;138.604;2023-07-20T11:52:58;0;0;
77777;PMS5003;66966;-34.746;138.604;2023-07-20T11:55:24;1;1;
77777;PMS5003;66966;-34.746;138.604;2023-07-20T12:00:15;2;1;
77777;PMS5003;66966;-34.746;138.604;2023-07-20T12:02:41;1;1;
77777;PMS5003;66966;-34.746;138.604;2023-07-20T12:05:06;3;2;
77777;PMS5003;66966;-34.746;138.604;2023-07-20T12:07:34;2;1;
77777;PMS5003;66966;-34.746;138.604;2023-07-20T12:10:04;0;0;
77777;PMS5003;66966;-34.746;138.604;2023-07-20T12:12:23;0;0;
77777;PMS5003;66966;-34.746;138.604;2023-07-20T12:14:49;1;1;
77777;PMS5003;66966;-34.746;138.604;2023-07-20T12:17:14;1;1;
77777;PMS5003;66966;-34.746;138.604;2023-07-20T12:19:40;2;1;
77777;PMS5003;66966;-34.746;138.604;2023-07-20T12:22:06;2;1;
77777;PMS5003;66966;-34.746;138.604;2023-07-20T12:24:31;0;0;
77777;PMS5003;66966;-34.746;138.604;2023-07-20T12:26:58;0;0;
77777;PMS5003;66966;-34.746;138.604;2023-07-20T12:29:23;1;1;
77777;PMS5003;66966;-34.746;138.604;2023-07-20T12:31:49;2;0;
77777;PMS5003;66966;-34.746;138.604;2023-07-20T12:34:14;2;1;
77777;PMS5003;66966;-34.746;138.604;2023-07-20T12:36:40;2;1;
77777;PMS5003;66966;-34.746;138.604;2023-07-20T12:39:06;1;0;
77777;PMS5003;66966;-34.746;138.604;2023-07-20T12:41:31;5;2;
77777;PMS5003;66966;-34.746;138.604;2023-07-20T12:43:57;2;1;
77777;PMS5003;66966;-34.746;138.604;2023-07-20T12:46:23;1;0;
77777;PMS5003;66966;-34.746;138.604;2023-07-20T12:48:48;0;0;
77777;PMS5003;66966;-34.746;138.604;2023-07-20T12:51:15;1;1;
77777;PMS5003;66966;-34.746;138.604;2023-07-20T12:53:40;0;0;
77777;PMS5003;66966;-34.746;138.604;2023-07-20T12:56:06;4;1;
77777;PMS5003;66966;-34.746;138.604;2023-07-20T12:58:31;2;2;
77777;PMS5003;66966;-34.746;138.604;2023-07-20T13:00:57;2;1;
77777;PMS5003;66966;-34.746;138.604;2023-07-20T13:03:23;1;1;
77777;PMS5003;66966;-34.746;138.604;2023-07-20T13:05:49;1;1;
77777;PMS5003;66966;-34.746;138.604;2023-07-20T13:08:14;1;1;
77777;PMS5003;66966;-34.746;138.604;2023-07-20T13:10:40;2;1;
77777;PMS5003;66966;-34.746;138.604;2023-07-20T13:13:06;2;1;
77777;PMS5003;66966;-34.746;138.604;2023-07-20T13:15:32;2;1;
77777;PMS5003;66966;-34.746;138.604;2023-07-20T13:17:57;1;1;
77777;PMS5003;66966;-34.746;138.604;2023-07-20T13:20:23;2;1;
77777;PMS5003;66966;-34.746;138.604;2023-07-20T13:22:49;2;2;
77777;PMS5003;66966;-34.746;138.604;2023-07-20T13:25:15;1;1;
77777;PMS5003;66966;-34.746;138.604;2023-07-20T13:27:41;4;3;
77777;PMS5003;66966;-34.746;138.604;2023-07-20T13:30:06;6;2;
77777;PMS5003;66966;-34.746;138.604;2023-07-20T13:32:32;3;3;
77777;PMS5003;66966;-34.746;138.604;2023-07-20T13:34:57;5;4;
77777;PMS5003;66966;-34.746;138.604;2023-07-20T13:37:23;6;5;
77777;PMS5003;66966;-34.746;138.604;2023-07-20T13:39:49;2;2;
77777;PMS5003;66966;-34.746;138.604;2023-07-20T13:42:14;3;3;
77777;PMS5003;66966;-34.746;138.604;2023-07-20T13:44:40;6;3;
77777;PMS5003;66966;-34.746;138.604;2023-07-20T13:47:06;3;2;
77777;PMS5003;66966;-34.746;138.604;2023-07-20T13:49:32;1;1;
77777;PMS5003;66966;-34.746;138.604;2023-07-20T13:51:58;1;1;
77777;PMS5003;66966;-34.746;138.604;2023-07-20T13:54:23;3;2;
77777;PMS5003;66966;-34.746;138.604;2023-07-20T13:56:49;2;1;
77777;PMS5003;66966;-34.746;138.604;2023-07-20T13:59:15;2;1;
77777;PMS5003;66966;-34.746;138.604;2023-07-20T14:01:40;4;2;
77777;PMS5003;66966;-34.746;138.604;2023-07-20T14:04:06;3;2;
77777;PMS5003;66966;-34.746;138.604;2023-07-20T14:06:32;2;1;
77777;PMS5003;66966;-34.746;138.604;2023-07-20T14:08:58;4;1;
77777;PMS5003;66966;-34.746;138.604;2023-07-20T14:11:23;2;1;
77777;PMS5003;66966;-34.746;138.604;2023-07-20T14:13:49;0;0;
77777;PMS5003;66966;-34.746;138.604;2023-07-20T14:16:15;2;1;
77777;PMS5003;66966;-34.746;138.604;2023-07-20T14:18:41;1;0;
77777;PMS5003;66966;-34.746;138.604;2023-07-20T14:21:06;3;1;
77777;PMS5003;66966;-34.746;138.604;2023-07-20T14:23:32;2;1;
77777;PMS5003;66966;-34.746;138.604;2023-07-20T14:25:58;1;1;
77777;PMS5003;66966;-34.746;138.604;2023-07-20T14:28:24;2;1;
77777;PMS5003;66966;-34.746;138.604;2023-07-20T14:30:50;1;0;
77777;PMS5003;66966;-34.746;138.604;2023-07-20T14:33:15;1;1;
77777;PMS5003;66966;-34.746;138.604;2023-07-20T14:35:41;1;1;
77777;PMS5003;66966;-34.746;138.604;2023-07-20T14:38:07;2;0;
77777;PMS5003;66966;-34.746;138.604;2023-07-20T14:40:33;1;1;
77777;PMS5003;66966;-34.746;138.604;2023-07-20T14:42:58;1;0;
77777;PMS5003;66966;-34.746;138.604;2023-07-20T14:45:24;0;0;
77777;PMS5003;66966;-34.746;138.604;2023-07-20T14:47:50;1;1;
77777;PMS5003;66966;-34.746;138.604;2023-07-20T14:50:16;5;3;
77777;PMS5003;66966;-34.746;138.604;2023-07-20T14:52:42;2;0;
77777;PMS5003;66966;-34.746;138.604;2023-07-20T14:55:07;1;1;
77777;PMS5003;66966;-34.746;138.604;2023-07-20T14:57:33;1;0;
77777;PMS5003;66966;-34.746;138.604;2023-07-20T14:59:59;1;0;
77777;PMS5003;66966;-34.746;138.604;2023-07-20T15:02:25;1;1;
77777;PMS5003;66966;-34.746;138.604;2023-07-20T15:04:51;2;0;
77777;PMS5003;66966;-34.746;138.604;2023-07-20T15:07:16;3;2;
77777;PMS5003;66966;-34.746;138.604;2023-07-20T15:09:42;2;1;
77777;PMS5003;66966;-34.746;138.604;2023-07-20T15:12:08;0;0;
77777;PMS5003;66966;-34.746;138.604;2023-07-20T15:14:34;0;0;
77777;PMS5003;66966;-34.746;138.604;2023-07-20T15:17:00;0;0;
77777;PMS5003;66966;-34.746;138.604;2023-07-20T15:19:25;3;2;
77777;PMS5003;66966;-34.746;138.604;2023-07-20T15:21:51;2;1;
77777;PMS5003;66966;-34.746;138.604;2023-07-20T15:24:17;3;2;
77777;PMS5003;66966;-34.746;138.604;2023-07-20T15:26:42;4;2;
77777;PMS5003;66966;-34.746;138.604;2023-07-20T15:29:09;1;1;
77777;PMS5003;66966;-34.746;138.604;2023-07-20T15:31:34;1;1;
77777;PMS5003;66966;-34.746;138.604;2023-07-20T15:34:00;1;1;
77777;PMS5003;66966;-34.746;138.604;2023-07-20T15:36:26;4;3;
77777;PMS5003;66966;-34.746;138.604;2023-07-20T15:38:52;3;2;
77777;PMS5003;66966;-34.746;138.604;2023-07-20T15:41:18;2;2;
77777;PMS5003;66966;-34.746;138.604;2023-07-20T15:43:43;3;1;
77777;PMS5003;66966;-34.746;138.604;2023-07-20T15:48:34;9;8;
77777;PMS5003;66966;-34.746;138.604;2023-07-20T15:51:00;9;7;
77777;PMS5003;66966;-34.746;138.604;2023-07-20T15:53:25;8;8;
77777;PMS5003;66966;-34.746;138.604;2023-07-20T15:55:53;11;8;
77777;PMS5003;66966;-34.746;138.604;2023-07-20T15:58:16;8;8;
77777;PMS5003;66966;-34.746;138.604;2023-07-20T16:00:41;13;11;
77777;PMS5003;66966;-34.746;138.604;2023-07-20T16:03:06;14;14;
77777;PMS5003;66966;-34.746;138.604;2023-07-20T16:05:32;13;12;
77777;PMS5003;66966;-34.746;138.604;2023-07-20T16:07:56;15;12;
77777;PMS5003;66966;-34.746;138.604;2023-07-20T16:10:21;16;14;
77777;PMS5003;66966;-34.746;138.604;2023-07-20T16:12:47;15;12;
77777;PMS5003;66966;-34.746;138.604;2023-07-20T16:15:13;15;15;